METAR AND TAF INFORMATION
METAR FOR UDYZ
ADDS - METARS form results

(1837 UTC 17 August 2018)
Data provider http://aviationweather.gov/adds/metars/
 
METAR text: UDYZ 171830Z 04013KT 9999 NSC 30/13 Q1006 R09/000070 NOSIG
Conditions at: UDYZ (ZVARTNOTS , AM) observed 1830 UTC 17 August 2018
Temperature: 30.0°C (86°F)
Dewpoint: 13.0°C (55°F) [RH = 35%]
Pressure (altimeter): 29.70 inches Hg (1006.0 mb)
Winds: from the NE (40 degrees) at 15 MPH (13 knots; 6.8 m/s)
Visibility: 6 or more miles (10+ km)
Ceiling: at least 12,000 feet AGL
Clouds: sky clear below 12,000 feet AGL
Weather: no significant weather observed at this time

METAR text: UDYZ 171800Z 04013G24KT 9999 NSC 30/13 Q1006 R09/000070 NOSIG
Conditions at: UDYZ (ZVARTNOTS , AM) observed 1800 UTC 17 August 2018
Temperature: 30.0°C (86°F)
Dewpoint: 13.0°C (55°F) [RH = 35%]
Pressure (altimeter): 29.70 inches Hg (1006.0 mb)
Winds: from the NE (40 degrees) at 15 MPH (13 knots; 6.8 m/s)
gusting to 28 MPH (24 knots; 12.5 m/s)
Visibility: 6 or more miles (10+ km)
Ceiling: at least 12,000 feet AGL
Clouds: sky clear below 12,000 feet AGL
Weather: no significant weather observed at this time

Forecast for: UDYZ (ZVARTNOTS , AM)
Text: TAF UDYZ 171704Z 1718/1818 08006KT CAVOK
Forecast period: 1800 UTC 17 August 2018 to 1800 UTC 18 August 2018
Forecast type: FROM: standard forecast or significant change
Winds: from the E (80 degrees) at 7 MPH (6 knots; 3.1 m/s)
Visibility: 6 or more miles (10+ km)
Clouds: not forecast
Weather: NSW  (no significant weather)
Text: TEMPO 1718/1724 03020G30KT
Forecast period: 1800 UTC 17 August 2018 to 0000 UTC 18 August 2018
Forecast type: TEMPORARY: The following changes expected for less than half the time period
Winds: from the NNE (30 degrees) at 23 MPH (20 knots; 10.4 m/s)
gusting to 34 MPH (30 knots; 15.6 m/s)
Weather: no significant weather forecast for this period

 AIRPORT MAP

 RUNWAY INFORMATION
Runway 09 Runway length 12629 ft Runway width 184 ft
Runway elevation 2800 ft Runway displaced threshold 0 ft Runway heading 90
Runway 27 Runway length 12629 ft Runway width 184 ft
Runway elevation 2838 ft Runway displaced threshold 0 ft Runway heading 270

 AIRPORT FREQUENCIES
Type APP Name YEREVAN AP Frequency 126 MHZ
Type ATIS Name ATIS Frequency 119.5 MHZ
Type GND Name YEREVAN GN Frequency 119 MHZ
Type TWR Name YEREVAN TW Frequency 128 MHZ

 AIRPORT NEAR NAVIGATION AIDS



Copyright © 2011 - 2018 BirgenAir Virtual Airlines. All rights reserved. Developed by Goktug Unver